Time;durP1;ratioP1;P1;durP2;ratioP2;P2;SDS_P1;SDS_P2;PMS_P1;PMS_P2;Temp;Humidity;BMP_temperature;BMP_pressure;BME280_temperature;BME280_humidity;BME280_pressure;Samples;Min_cycle;Max_cycle;Signal;HPM_P1;HPM_P2
2022/05/22 00:00:24;;;;;;;29.03;4.50;;;;;;;19.72;nan;101452.41;4863076;29;20454;-94
2022/05/22 00:02:53;;;;;;;31.47;4.33;;;;;;;19.72;nan;101446.03;4816776;29;20468;-93
2022/05/22 00:05:21;;;;;;;20.23;4.70;;;;;;;19.75;nan;101457.50;4816970;29;20818;-93
2022/05/22 00:07:50;;;;;;;22.27;5.13;;;;;;;19.72;nan;101459.88;4771873;30;20456;-93
2022/05/22 00:10:25;;;;;;;41.07;5.33;;;;;;;19.69;nan;101441.78;4817040;29;20462;-93
2022/05/22 00:13:03;;;;;;;26.43;4.13;;;;;;;19.69;nan;101446.50;4787587;30;20854;-92
2022/05/22 00:19:23;;;;;;;26.73;4.37;;;;;;;19.67;nan;101446.72;4779822;29;20479;-94
2022/05/22 00:21:51;;;;;;;22.27;4.87;;;;;;;19.66;nan;101442.25;4784804;29;20472;-93
2022/05/22 00:27:58;;;;;;;17.00;3.73;;;;;;;19.63;nan;101437.19;4844062;29;20460;-93
2022/05/22 00:34:13;;;;;;;33.83;4.07;;;;;;;19.53;nan;101418.34;4862504;29;20487;-93
2022/05/22 00:36:44;;;;;;;28.27;5.20;;;;;;;19.48;nan;101417.34;4817149;29;20477;-93
2022/05/22 00:39:49;;;;;;;30.13;4.97;;;;;;;19.59;nan;101430.44;4815894;29;20492;-93
2022/05/22 00:46:05;;;;;;;25.30;4.30;;;;;;;19.50;nan;101416.06;4862647;29;20466;-93
2022/05/22 00:48:33;;;;;;;16.83;3.57;;;;;;;19.47;nan;101404.53;4845404;29;20845;-93
2022/05/22 00:51:09;;;;;;;26.87;4.87;;;;;;;19.47;nan;101410.09;4816766;29;20464;-94
2022/05/22 00:54:01;;;;;;;21.90;4.03;;;;;;;19.56;nan;101417.03;4813761;29;20460;-93
2022/05/22 01:00:14;;;;;;;28.17;5.07;;;;;;;19.54;nan;101420.06;4860364;29;21155;-93
2022/05/22 01:06:20;;;;;;;27.93;4.23;;;;;;;19.56;nan;101422.59;4830493;29;20460;-93
2022/05/22 01:09:21;;;;;;;25.87;4.53;;;;;;;19.53;nan;101428.59;4834491;29;20451;-93
2022/05/22 01:11:55;;;;;;;22.00;3.93;;;;;;;19.45;nan;101413.09;4860423;29;20466;-93
2022/05/22 01:15:00;;;;;;;18.70;4.20;;;;;;;19.50;nan;101413.28;4845368;29;20464;-94
2022/05/22 01:18:01;;;;;;;21.77;3.70;;;;;;;19.52;nan;101405.56;4860969;29;20463;-93
2022/05/22 01:24:10;;;;;;;19.30;4.03;;;;;;;19.50;nan;101402.19;4852553;29;20592;-94
2022/05/22 01:27:03;;;;;;;27.33;5.03;;;;;;;19.50;nan;101404.13;4860321;29;20508;-93
2022/05/22 01:29:38;;;;;;;29.83;4.10;;;;;;;19.41;nan;101397.19;4840683;29;20471;-93
2022/05/22 01:33:03;;;;;;;22.70;4.60;;;;;;;19.50;nan;101406.88;4830554;29;20472;-93
2022/05/22 01:36:04;;;;;;;22.10;4.27;;;;;;;19.50;nan;101401.34;4787732;30;20451;-92
2022/05/22 01:42:13;;;;;;;40.67;5.77;;;;;;;19.41;nan;101394.44;4787163;30;20472;-93
2022/05/22 01:45:14;;;;;;;24.87;4.20;;;;;;;19.47;nan;101399.00;4757799;30;20516;-93
2022/05/22 01:48:07;;;;;;;28.30;4.07;;;;;;;19.45;nan;101401.16;4757880;30;21001;-93
2022/05/22 01:51:02;;;;;;;22.23;3.87;;;;;;;19.44;nan;101405.00;4771719;30;20463;-93
2022/05/22 01:53:32;;;;;;;24.07;4.27;;;;;;;19.40;nan;101393.56;4787004;29;20469;-93
2022/05/22 01:56:35;;;;;;;29.87;4.13;;;;;;;19.42;nan;101401.66;4786919;30;20486;-94
2022/05/22 02:02:56;;;;;;;26.13;4.70;;;;;;;19.30;nan;101388.59;4793696;29;20441;-93
2022/05/22 02:06:12;;;;;;;21.87;4.50;;;;;;;19.42;nan;101401.66;4780995;29;20469;-93
2022/05/22 02:16:08;;;;;;;18.93;4.23;;;;;;;19.22;nan;101380.63;4861552;29;20434;-93
2022/05/22 02:19:03;;;;;;;21.30;4.17;;;;;;;19.32;nan;101394.75;4841499;29;20490;-93
2022/05/22 02:22:09;;;;;;;25.50;4.60;;;;;;;19.30;nan;101398.84;4845461;29;20867;-94
2022/05/22 02:24:55;;;;;;;20.10;3.50;;;;;;;19.26;nan;101392.91;4829624;29;20455;-93
2022/05/22 02:27:31;;;;;;;20.87;5.00;;;;;;;19.19;nan;101381.09;4845237;29;20467;-93
2022/05/22 02:33:47;;;;;;;18.97;3.80;;;;;;;19.17;nan;101374.94;4860858;29;20830;-93
2022/05/22 02:40:02;;;;;;;21.40;4.30;;;;;;;19.20;nan;101384.72;4863663;29;20565;-93
2022/05/22 02:47:04;;;;;;;23.83;3.97;;;;;;;19.22;nan;101385.31;4864946;29;20420;-93
2022/05/22 02:50:22;;;;;;;28.03;4.10;;;;;;;19.20;nan;101374.47;4862909;29;20486;-93
2022/05/22 02:52:58;;;;;;;30.03;4.00;;;;;;;19.10;nan;101359.47;4863908;29;20470;-93
2022/05/22 02:55:36;;;;;;;21.97;4.10;;;;;;;19.18;nan;101365.53;4817924;29;20459;-93
2022/05/22 03:01:46;;;;;;;25.27;3.67;;;;;;;19.14;nan;101350.47;4854181;29;20466;-93
2022/05/22 03:05:01;;;;;;;17.10;3.70;;;;;;;19.20;nan;101360.63;4822868;29;20808;-94
2022/05/22 03:11:16;;;;;;;32.13;4.67;;;;;;;19.09;nan;101346.69;4860946;29;20527;-94
2022/05/22 03:14:17;;;;;;;25.97;4.87;;;;;;;19.15;nan;101357.69;4832667;29;20512;-94
2022/05/22 03:20:26;;;;;;;22.87;4.57;;;;;;;19.08;nan;101362.47;4863525;29;20486;-94
2022/05/22 03:22:59;;;;;;;22.87;4.30;;;;;;;19.06;nan;101364.63;4847948;29;20819;-94
2022/05/22 03:29:14;;;;;;;18.13;4.57;;;;;;;19.08;nan;101356.94;4848857;29;20434;-94
2022/05/22 03:35:45;;;;;;;27.50;5.30;;;;;;;19.17;nan;101377.72;4861159;29;20523;-93
2022/05/22 03:38:15;;;;;;;24.37;4.97;;;;;;;19.12;nan;101365.63;4862887;29;20571;-93
2022/05/22 03:44:42;;;;;;;21.87;3.87;;;;;;;19.08;nan;101359.69;4863515;29;20495;-93
2022/05/22 03:47:09;;;;;;;27.70;5.27;;;;;;;19.08;nan;101364.41;4817204;29;20490;-94
2022/05/22 03:53:33;;;;;;;25.67;4.43;;;;;;;19.06;nan;101369.31;4863247;29;20476;-94
2022/05/22 03:56:11;;;;;;;23.77;4.10;;;;;;;19.07;nan;101371.88;4847827;29;20460;-93
2022/05/22 03:59:06;;;;;;;31.37;5.10;;;;;;;19.05;nan;101367.66;4832075;29;20492;-94
2022/05/22 04:01:53;;;;;;;16.50;4.57;;;;;;;19.02;nan;101371.75;4846933;29;20851;-93
2022/05/22 04:08:01;;;;;;;31.70;4.33;;;;;;;18.97;nan;101368.81;4863071;29;20491;-93
2022/05/22 04:14:09;;;;;;;31.57;4.90;;;;;;;18.84;nan;101342.16;4862705;29;20478;-93
2022/05/22 04:17:01;;;;;;;20.90;4.30;;;;;;;18.95;nan;101362.66;4816173;29;20534;-93
2022/05/22 04:29:54;;;;;;;26.23;3.73;;;;;;;18.93;nan;101348.19;4862610;29;20492;-94
2022/05/22 04:32:48;;;;;;;25.17;4.57;;;;;;;19.05;nan;101365.72;4816218;29;20470;-93
2022/05/22 04:35:43;;;;;;;21.93;4.33;;;;;;;19.01;nan;101369.22;4847338;29;20451;-94
2022/05/22 04:38:29;;;;;;;19.10;4.40;;;;;;;18.97;nan;101357.75;4831603;29;21038;-94
2022/05/22 04:41:12;;;;;;;25.83;4.60;;;;;;;18.98;nan;101368.59;4842333;29;20512;-94
2022/05/22 04:43:47;;;;;;;36.03;4.53;;;;;;;18.97;nan;101361.34;4828119;29;20464;-93
2022/05/22 04:49:52;;;;;;;21.13;3.80;;;;;;;18.98;nan;101371.38;4828533;29;20484;-94
2022/05/22 04:56:00;;;;;;;18.87;4.00;;;;;;;18.99;nan;101380.53;4842565;29;20475;-93
2022/05/22 04:58:39;;;;;;;18.37;3.80;;;;;;;19.02;nan;101373.66;4796427;29;20500;-94
2022/05/22 05:01:19;;;;;;;24.90;4.30;;;;;;;18.87;nan;101355.50;4811216;29;20491;-93
2022/05/22 05:03:46;;;;;;;20.67;4.07;;;;;;;18.92;nan;101363.13;4778358;29;20476;-93
2022/05/22 05:10:02;;;;;;;24.80;3.93;;;;;;;18.94;nan;101372.91;4821651;29;20865;-93
2022/05/22 05:12:29;;;;;;;24.60;4.23;;;;;;;18.93;nan;101381.44;4808886;29;20460;-94
2022/05/22 05:18:40;;;;;;;27.03;4.63;;;;;;;19.06;nan;101386.78;4768017;30;20506;-93
2022/05/22 05:28:05;;;;;;;22.37;4.00;;;;;;;19.03;nan;101398.38;4787320;30;20540;-93
2022/05/22 05:34:19;;;;;;;23.63;4.57;;;;;;;19.03;nan;101389.22;4834327;29;20864;-93
2022/05/22 05:41:10;;;;;;;23.07;4.33;;;;;;;19.01;nan;101406.06;4842936;29;20515;-92
2022/05/22 05:47:25;;;;;;;22.60;5.43;;;;;;;18.85;nan;101374.31;4842966;29;20540;-92
2022/05/22 05:57:14;;;;;;;24.20;4.03;;;;;;;18.94;nan;101395.06;4843265;29;20909;-93
2022/05/22 05:59:57;;;;;;;23.40;3.80;;;;;;;18.95;nan;101407.00;4812021;29;21015;-94
2022/05/22 06:06:13;;;;;;;18.40;2.63;;;;;;;18.90;nan;101393.00;4825268;29;20435;-93
2022/05/22 06:08:41;;;;;;;16.73;3.57;;;;;;;19.01;nan;101413.53;4826968;29;20959;-93
2022/05/22 06:11:09;;;;;;;15.97;3.13;;;;;;;19.04;nan;101405.63;4808722;29;20484;-93
2022/05/22 06:13:56;;;;;;;18.63;3.50;;;;;;;19.09;nan;101425.13;4814204;29;20457;-93
2022/05/22 06:16:34;;;;;;;15.73;2.90;;;;;;;19.12;nan;101435.75;4827110;29;20468;-92
2022/05/22 06:22:32;;;;;;;15.30;3.90;;;;;;;19.23;nan;101437.75;4846459;29;20466;-93
2022/05/22 06:25:33;;;;;;;19.73;4.13;;;;;;;19.27;nan;101438.09;4800559;29;20460;-93
2022/05/22 06:31:42;;;;;;;18.90;3.47;;;;;;;19.36;nan;101433.09;4846503;29;20990;-93
2022/05/22 06:34:32;;;;;;;30.80;4.20;;;;;;;19.43;nan;101442.16;4814961;29;20468;-93
2022/05/22 06:37:54;;;;;;;23.10;4.80;;;;;;;19.47;nan;101444.22;4829911;29;20452;-93
2022/05/22 06:41:00;;;;;;;18.90;3.70;;;;;;;19.55;nan;101429.22;4844186;29;20487;-93
2022/05/22 06:43:28;;;;;;;25.93;4.63;;;;;;;19.49;nan;101427.34;4838158;29;20455;-93
2022/05/22 06:45:57;;;;;;;14.83;2.50;;;;;;;19.53;nan;101425.81;4814220;29;20467;-94
2022/05/22 06:48:25;;;;;;;25.63;3.40;;;;;;;19.62;nan;101432.75;4825025;29;20473;-94
2022/05/22 06:54:42;;;;;;;28.83;4.17;;;;;;;19.63;nan;101426.09;4845767;29;20479;-93
2022/05/22 06:57:46;;;;;;;23.40;4.10;;;;;;;19.70;nan;101434.31;4800789;29;20464;-93
2022/05/22 07:00:30;;;;;;;12.40;3.00;;;;;;;19.70;nan;101421.28;4826321;29;20515;-93
2022/05/22 07:09:51;;;;;;;18.83;3.10;;;;;;;19.85;nan;101435.53;4771154;30;20516;-94
2022/05/22 07:12:39;;;;;;;15.33;3.27;;;;;;;19.89;nan;101436.78;4757207;30;20468;-93
2022/05/22 07:18:53;;;;;;;12.10;3.23;;;;;;;19.96;nan;101415.31;4771558;30;20481;-92
2022/05/22 07:21:21;;;;;;;18.20;2.57;;;;;;;20.14;nan;101419.91;4742058;30;20492;-93
2022/05/22 07:23:59;;;;;;;10.83;2.67;;;;;;;20.17;nan;101424.16;4741539;29;20480;-94
2022/05/22 07:27:02;;;;;;;10.30;2.83;;;;;;;20.22;nan;101418.69;4796666;29;21029;-94
2022/05/22 07:29:40;;;;;;;18.40;3.47;;;;;;;20.13;nan;101407.13;4841678;29;20467;-93
2022/05/22 07:32:33;;;;;;;15.57;2.73;;;;;;;20.32;nan;101424.50;4829836;29;20437;-94
2022/05/22 07:35:03;;;;;;;14.27;2.73;;;;;;;20.26;nan;101414.34;4829014;29;20484;-93
2022/05/22 07:37:32;;;;;;;18.83;3.13;;;;;;;20.29;nan;101417.50;4844093;29;20496;-94
2022/05/22 07:40:01;;;;;;;13.70;3.57;;;;;;;20.31;nan;101411.69;4829319;29;20851;-94
2022/05/22 07:42:31;;;;;;;17.87;3.07;;;;;;;20.25;nan;101412.66;4829603;29;20468;-93
2022/05/22 07:44:59;;;;;;;23.80;3.87;;;;;;;20.33;nan;101415.94;4844301;29;20798;-94
2022/05/22 07:47:29;;;;;;;12.63;2.50;;;;;;;20.42;nan;101435.03;4814049;29;20464;-94
2022/05/22 07:50:17;;;;;;;13.33;2.60;;;;;;;20.50;nan;101418.84;4829725;29;20483;-93
2022/05/22 07:52:56;;;;;;;21.00;2.70;;;;;;;20.37;nan;101416.34;4854425;29;20458;-94
2022/05/22 07:55:25;;;;;;;19.03;3.53;;;;;;;20.41;nan;101425.84;4849393;29;20469;-94
2022/05/22 07:58:09;;;;;;;18.77;3.43;;;;;;;20.42;nan;101410.88;4834640;29;20458;-94
2022/05/22 08:00:40;;;;;;;15.23;2.90;;;;;;;20.42;nan;101424.75;4854084;29;20490;-91
2022/05/22 08:03:27;;;;;;;22.07;2.97;;;;;;;20.55;nan;101420.91;4869065;29;20445;-90
2022/05/22 08:06:13;;;;;;;21.97;3.00;;;;;;;20.59;nan;101436.81;4867140;29;20948;-91
2022/05/22 08:12:41;;;;;;;19.67;2.90;;;;;;;20.84;nan;101427.34;4881734;29;20866;-91
2022/05/22 08:15:38;;;;;;;16.40;2.70;;;;;;;20.99;nan;101436.00;4852170;29;20465;-92
2022/05/22 08:18:10;;;;;;;19.87;3.53;;;;;;;20.99;nan;101436.00;4846775;29;20459;-92
2022/05/22 08:21:00;;;;;;;22.77;4.00;;;;;;;21.07;nan;101437.56;4849549;29;20498;-91
2022/05/22 08:23:36;;;;;;;19.60;4.57;;;;;;;21.03;nan;101431.66;4849367;29;20454;-91
2022/05/22 08:26:07;;;;;;;19.17;2.90;;;;;;;21.16;nan;101441.66;4864418;29;20453;-91
2022/05/22 08:28:50;;;;;;;17.00;3.60;;;;;;;21.20;nan;101445.66;4880097;29;20609;-91
2022/05/22 08:31:20;;;;;;;28.33;3.77;;;;;;;21.11;nan;101416.53;4879822;29;20465;-91
2022/05/22 08:34:13;;;;;;;15.00;3.13;;;;;;;21.30;nan;101457.00;4864149;29;20451;-92
2022/05/22 08:36:48;;;;;;;16.37;2.90;;;;;;;21.28;nan;101460.03;4864466;29;20789;-91
2022/05/22 08:39:15;;;;;;;21.43;3.63;;;;;;;21.26;nan;101445.50;4857468;29;20514;-94
2022/05/22 08:42:00;;;;;;;15.93;3.60;;;;;;;21.18;nan;101453.34;4849042;29;20502;-93
2022/05/22 08:44:36;;;;;;;17.90;3.07;;;;;;;21.27;nan;101454.69;4849949;29;20454;-91
2022/05/22 08:47:20;;;;;;;22.97;3.83;;;;;;;21.23;nan;101459.06;4879107;29;20462;-91
2022/05/22 08:54:13;;;;;;;9.47;2.03;;;;;;;21.34;nan;101447.91;4862412;29;20426;-92
2022/05/22 09:00:33;;;;;;;11.60;2.23;;;;;;;21.35;nan;101419.00;4849841;29;21001;-92
2022/05/22 09:03:47;;;;;;;13.70;1.90;;;;;;;21.61;nan;101452.84;4818363;29;20820;-92
2022/05/22 09:06:54;;;;;;;15.90;2.73;;;;;;;21.75;nan;101437.53;4846521;29;20467;-92
2022/05/22 09:09:37;;;;;;;8.83;2.43;;;;;;;21.76;nan;101435.59;4826009;29;20822;-91
2022/05/22 09:12:27;;;;;;;12.33;2.77;;;;;;;21.88;nan;101472.56;4830491;29;20456;-92
2022/05/22 09:19:20;;;;;;;7.50;2.20;;;;;;;21.99;nan;101447.41;4843721;29;20483;-93
2022/05/22 09:22:03;;;;;;;9.07;2.33;;;;;;;21.92;nan;101457.91;4854098;29;20495;-92
2022/05/22 09:25:01;;;;;;;11.47;2.73;;;;;;;21.91;nan;101450.63;4860787;29;20463;-93
2022/05/22 09:39:26;;;;;;;12.73;1.93;;;;;;;21.87;nan;101484.78;4861306;29;20500;-94
2022/05/22 10:05:54;;;;;;;7.50;1.80;;;;;;;22.16;nan;101469.72;4846183;29;20487;-92
2022/05/22 10:08:40;;;;;;;5.20;1.60;;;;;;;22.16;nan;101480.03;4756746;30;20453;-92
2022/05/22 10:11:27;;;;;;;11.90;2.20;;;;;;;22.20;nan;101492.34;4756692;30;20468;-90
2022/05/22 11:07:12;;;;;;;3.90;1.40;;;;;;;22.84;nan;101464.97;4863731;29;20483;-93
2022/05/22 11:36:45;;;;;;;6.47;1.60;;;;;;;23.27;nan;101481.72;4798944;30;20475;-96
2022/05/22 11:43:41;;;;;;;10.50;1.90;;;;;;;23.49;nan;101466.88;4794062;29;20997;-95
2022/05/22 11:46:51;;;;;;;6.03;0.97;;;;;;;23.55;nan;101477.88;4793413;29;20471;-93
2022/05/22 11:50:15;;;;;;;6.57;1.37;;;;;;;23.85;nan;101477.34;4799493;29;20526;-90
2022/05/22 14:59:17;;;;;;;9.60;2.67;;;;;;;26.12;nan;101398.44;4845619;29;20499;-91
2022/05/22 15:02:08;;;;;;;9.80;2.37;;;;;;;26.03;nan;101414.13;4814671;29;20999;-90
2022/05/22 15:08:40;;;;;;;13.57;2.70;;;;;;;25.46;nan;101403.97;4845905;29;20867;-91
2022/05/22 15:11:33;;;;;;;9.07;2.93;;;;;;;25.07;nan;101402.75;4831169;29;20461;-94
2022/05/22 15:14:04;;;;;;;12.67;3.10;;;;;;;24.95;nan;101404.97;4844470;29;20461;-91
2022/05/22 15:16:38;;;;;;;12.93;3.23;;;;;;;25.01;nan;101392.69;4829305;29;20461;-91
2022/05/22 15:33:55;;;;;;;21.20;3.10;;;;;;;25.48;nan;101379.34;4864075;29;20411;-87
2022/05/22 15:36:42;;;;;;;12.17;3.03;;;;;;;25.42;nan;101368.41;4829652;29;20460;-92
2022/05/22 15:40:04;;;;;;;11.37;3.10;;;;;;;25.54;nan;101379.38;4817966;29;20459;-94
2022/05/22 15:43:15;;;;;;;11.20;3.57;;;;;;;25.47;nan;101376.81;4847037;29;20474;-92
2022/05/22 15:46:28;;;;;;;10.13;3.00;;;;;;;25.73;nan;101370.16;4840762;29;20460;-94
2022/05/22 18:02:06;;;;;;;14.17;3.00;;;;;;;22.49;nan;101368.59;4851188;29;20643;-93
2022/05/22 18:04:35;;;;;;;16.60;4.57;;;;;;;22.39;nan;101362.84;4820229;29;20456;-89
2022/05/22 18:07:24;;;;;;;19.20;4.80;;;;;;;22.24;nan;101365.44;4812513;29;20437;-91
2022/05/22 18:16:15;;;;;;;16.63;3.73;;;;;;;22.15;nan;101356.66;4846729;29;20450;-86
2022/05/22 18:18:47;;;;;;;16.50;4.10;;;;;;;22.09;nan;101343.78;4851610;29;20443;-89
2022/05/22 18:21:18;;;;;;;15.53;3.83;;;;;;;22.07;nan;101345.13;4833059;29;20517;-88
2022/05/22 18:27:31;;;;;;;14.90;3.90;;;;;;;21.97;nan;101352.19;4767887;30;20492;-88
2022/05/22 18:29:59;;;;;;;15.60;4.00;;;;;;;21.92;nan;101359.63;4758803;30;20455;-88
2022/05/22 18:32:35;;;;;;;19.30;4.57;;;;;;;21.85;nan;101351.44;4774842;30;21043;-90
2022/05/22 18:35:05;;;;;;;15.10;3.40;;;;;;;21.76;nan;101358.50;4781407;30;20462;-88
2022/05/22 18:37:34;;;;;;;13.83;3.70;;;;;;;21.78;nan;101345.19;4741632;30;20881;-86
2022/05/22 18:40:02;;;;;;;12.77;3.20;;;;;;;21.62;nan;101365.50;4756468;30;20459;-87
2022/05/22 18:42:35;;;;;;;10.67;3.00;;;;;;;21.50;nan;101360.03;4756462;30;20484;-86
2022/05/22 18:45:04;;;;;;;11.43;3.03;;;;;;;21.44;nan;101355.47;4756628;30;20895;-86
2022/05/22 18:47:34;;;;;;;12.50;3.03;;;;;;;21.33;nan;101351.66;4756467;30;20893;-87
2022/05/22 18:50:06;;;;;;;25.23;4.43;;;;;;;21.18;nan;101343.00;4741511;30;20456;-86
2022/05/22 18:52:42;;;;;;;11.43;3.60;;;;;;;21.03;nan;101346.34;4755456;30;20464;-87
2022/05/22 18:55:13;;;;;;;9.87;2.57;;;;;;;20.91;nan;101339.16;4770239;30;20955;-87
2022/05/22 18:57:42;;;;;;;14.03;3.47;;;;;;;20.95;nan;101354.25;4741689;30;20850;-88
2022/05/22 19:00:34;;;;;;;12.93;2.90;;;;;;;20.88;nan;101350.75;4741036;30;20456;-87
2022/05/22 19:03:05;;;;;;;11.43;3.40;;;;;;;20.77;nan;101343.31;4811957;29;20491;-87
2022/05/22 19:05:33;;;;;;;10.20;2.67;;;;;;;20.64;nan;101331.38;4832191;29;20458;-88
2022/05/22 19:08:07;;;;;;;9.67;3.10;;;;;;;20.60;nan;101346.84;4832182;29;20447;-88
2022/05/22 19:10:36;;;;;;;8.63;2.60;;;;;;;20.41;nan;101341.69;4832115;29;20451;-88
2022/05/22 19:13:03;;;;;;;7.93;2.70;;;;;;;20.33;nan;101340.13;4831769;29;20459;-89
2022/05/22 19:15:32;;;;;;;8.07;3.17;;;;;;;20.31;nan;101343.13;4819637;29;20926;-88
2022/05/22 19:18:00;;;;;;;6.60;2.87;;;;;;;20.34;nan;101355.69;4828813;29;20508;-88
2022/05/22 19:36:45;;;;;;;10.57;2.93;;;;;;;20.02;nan;101342.19;4846031;29;20424;-95
2022/05/22 19:43:58;;;;;;;6.37;2.80;;;;;;;20.09;nan;101374.53;4790374;30;21058;-95
2022/05/22 20:05:42;;;;;;;6.87;1.77;;;;;;;19.75;nan;101396.47;4807475;29;20532;-91
2022/05/22 20:08:35;;;;;;;7.10;1.90;;;;;;;19.79;nan;101403.22;4774333;30;20816;-88
2022/05/22 20:11:07;;;;;;;8.73;2.43;;;;;;;19.80;nan;101410.47;4787881;29;20574;-85
2022/05/22 20:13:35;;;;;;;7.73;2.33;;;;;;;19.80;nan;101416.03;4787111;30;20459;-84
2022/05/22 20:16:03;;;;;;;7.37;2.03;;;;;;;19.75;nan;101406.72;4827948;29;20464;-86
2022/05/22 20:18:31;;;;;;;11.20;2.33;;;;;;;19.81;nan;101409.38;4830887;29;20459;-85
2022/05/22 20:20:59;;;;;;;12.77;4.70;;;;;;;19.75;nan;101415.88;4831054;29;20462;-85
2022/05/22 20:23:27;;;;;;;8.77;3.00;;;;;;;19.72;nan;101404.41;4815890;29;20459;-85
2022/05/22 20:25:55;;;;;;;10.10;2.83;;;;;;;19.74;nan;101411.41;4827473;29;20456;-86
2022/05/22 20:28:32;;;;;;;9.00;2.50;;;;;;;19.75;nan;101407.56;4834718;29;20460;-85
2022/05/22 20:31:00;;;;;;;13.73;2.83;;;;;;;19.72;nan;101413.56;4839820;29;20451;-85
2022/05/22 20:33:29;;;;;;;6.80;1.80;;;;;;;19.72;nan;101409.97;4829938;29;20939;-88
2022/05/22 20:35:57;;;;;;;7.33;2.20;;;;;;;19.72;nan;101415.50;4830240;29;20455;-86
2022/05/22 20:38:25;;;;;;;7.80;2.00;;;;;;;19.73;nan;101431.91;4830152;29;20466;-86
2022/05/22 20:40:55;;;;;;;6.20;2.07;;;;;;;19.67;nan;101425.38;4826791;29;20512;-86
2022/05/22 20:43:23;;;;;;;7.37;1.77;;;;;;;19.69;nan;101435.41;4842382;29;20480;-87
2022/05/22 20:46:11;;;;;;;7.27;2.10;;;;;;;19.73;nan;101429.13;4835214;29;20447;-86
2022/05/22 20:48:40;;;;;;;12.30;1.87;;;;;;;19.76;nan;101428.66;4861133;29;20527;-86
2022/05/22 20:51:08;;;;;;;6.50;2.33;;;;;;;19.76;nan;101428.66;4830395;29;20451;-86
2022/05/22 20:53:36;;;;;;;3.47;1.20;;;;;;;19.67;nan;101421.75;4812939;29;20471;-85
2022/05/22 20:58:50;;;;;;;4.50;1.30;;;;;;;19.58;nan;101434.28;4835087;29;20455;-86
2022/05/22 21:01:18;;;;;;;6.40;2.30;;;;;;;19.50;nan;101426.28;4829301;29;21054;-86
2022/05/22 21:03:45;;;;;;;10.70;2.30;;;;;;;19.49;nan;101438.44;4814330;29;20808;-86
2022/05/22 21:06:14;;;;;;;7.80;1.70;;;;;;;19.52;nan;101441.63;4829546;29;20487;-86
2022/05/22 21:08:41;;;;;;;9.30;1.80;;;;;;;19.57;nan;101446.47;4829976;29;20773;-86
2022/05/22 21:11:11;;;;;;;6.90;1.53;;;;;;;19.52;nan;101443.53;4830020;29;20607;-86
2022/05/22 21:13:39;;;;;;;4.87;1.47;;;;;;;19.49;nan;101446.75;4844317;29;20462;-85
2022/05/22 21:16:08;;;;;;;3.73;1.57;;;;;;;19.50;nan;101454.03;4845067;29;20454;-85
2022/05/22 21:18:38;;;;;;;12.33;1.80;;;;;;;19.48;nan;101456.16;4829870;29;20451;-86
2022/05/22 21:21:07;;;;;;;13.93;1.40;;;;;;;19.48;nan;101453.38;4861120;29;20490;-86
2022/05/22 21:29:24;;;;;;;7.80;1.47;;;;;;;19.45;nan;101465.78;4834373;29;21042;-86
2022/05/22 21:31:52;;;;;;;5.00;1.20;;;;;;;19.42;nan;101457.13;4859679;29;20456;-86
2022/05/22 21:34:20;;;;;;;4.10;1.33;;;;;;;19.38;nan;101461.44;4829631;29;20467;-86
2022/05/22 21:36:48;;;;;;;4.00;1.40;;;;;;;19.36;nan;101458.03;4829801;29;20447;-86
2022/05/22 21:39:16;;;;;;;4.80;1.53;;;;;;;19.42;nan;101473.75;4829867;29;20459;-86
2022/05/22 21:41:44;;;;;;;4.63;1.40;;;;;;;19.40;nan;101473.13;4843859;29;21053;-86
2022/05/22 21:44:34;;;;;;;4.67;1.00;;;;;;;19.36;nan;101469.13;4807630;29;20457;-85
2022/05/22 21:47:02;;;;;;;8.20;1.20;;;;;;;19.24;nan;101461.59;4826370;29;20465;-85
2022/05/22 21:49:30;;;;;;;7.70;1.33;;;;;;;19.29;nan;101464.50;4841167;29;20465;-86
2022/05/22 21:51:57;;;;;;;6.60;1.50;;;;;;;19.28;nan;101465.59;4841476;29;20452;-85
2022/05/22 21:54:25;;;;;;;6.07;1.13;;;;;;;19.22;nan;101451.84;4838841;29;20974;-85
2022/05/22 21:56:55;;;;;;;4.00;1.20;;;;;;;19.22;nan;101458.22;4844090;29;20483;-85
2022/05/22 21:59:23;;;;;;;2.10;1.00;;;;;;;19.20;nan;101460.38;4827898;29;20523;-85
2022/05/22 22:01:51;;;;;;;6.80;1.60;;;;;;;19.18;nan;101464.47;4828012;29;20851;-85
2022/05/22 22:04:19;;;;;;;5.77;2.40;;;;;;;19.10;nan;101459.22;4813945;29;20463;-85
2022/05/22 22:06:48;;;;;;;5.57;2.63;;;;;;;19.10;nan;101471.16;4844114;29;20479;-86
2022/05/22 22:09:16;;;;;;;8.30;1.90;;;;;;;19.07;nan;101481.84;4859285;29;20514;-85
2022/05/22 22:11:44;;;;;;;6.07;1.70;;;;;;;19.06;nan;101481.00;4860234;29;20925;-86
2022/05/22 22:14:12;;;;;;;7.33;2.10;;;;;;;19.04;nan;101466.56;4829261;29;20455;-86
2022/05/22 22:16:40;;;;;;;11.90;2.13;;;;;;;19.04;nan;101474.88;4814151;29;20451;-85
2022/05/22 22:19:09;;;;;;;9.30;1.70;;;;;;;19.11;nan;101481.16;4843730;29;20928;-85
2022/05/22 22:21:40;;;;;;;7.30;1.97;;;;;;;19.13;nan;101479.00;4844177;29;20832;-85
2022/05/22 22:24:19;;;;;;;8.30;1.90;;;;;;;19.12;nan;101469.00;4828956;29;20455;-85
2022/05/22 22:26:47;;;;;;;14.33;2.20;;;;;;;19.11;nan;101478.41;4813535;29;20459;-85
2022/05/22 22:29:19;;;;;;;5.57;1.80;;;;;;;19.12;nan;101462.63;4828701;29;20451;-86
2022/05/22 22:31:47;;;;;;;9.90;2.00;;;;;;;19.13;nan;101467.94;4843962;29;20855;-85
2022/05/22 22:34:15;;;;;;;7.30;2.20;;;;;;;19.12;nan;101463.47;4814110;29;20460;-86
2022/05/22 22:36:43;;;;;;;11.00;2.30;;;;;;;19.17;nan;101471.94;4844019;29;20515;-85
2022/05/22 22:39:10;;;;;;;13.00;2.83;;;;;;;19.14;nan;101466.84;4860339;29;20463;-85
2022/05/22 22:41:39;;;;;;;6.73;1.50;;;;;;;19.14;nan;101471.53;4828655;29;20985;-86
2022/05/22 22:44:07;;;;;;;6.77;2.30;;;;;;;19.18;nan;101468.09;4820649;29;20463;-86
2022/05/22 22:46:36;;;;;;;11.17;2.77;;;;;;;19.14;nan;101455.75;4859521;29;20451;-86
2022/05/22 22:49:04;;;;;;;7.93;1.93;;;;;;;19.11;nan;101464.53;4843707;29;20456;-86
2022/05/22 22:51:32;;;;;;;8.40;2.90;;;;;;;19.08;nan;101473.31;4829012;29;20459;-86
2022/05/22 22:59:33;;;;;;;9.80;2.27;;;;;;;18.97;nan;101449.16;4847824;29;20787;-86
2022/05/22 23:02:01;;;;;;;6.80;2.33;;;;;;;18.89;nan;101447.53;4831826;29;20487;-86
2022/05/22 23:04:29;;;;;;;12.63;2.73;;;;;;;18.87;nan;101448.84;4862800;29;20455;-85
2022/05/22 23:06:57;;;;;;;6.63;2.63;;;;;;;18.92;nan;101452.63;4816880;29;20555;-86
2022/05/22 23:09:25;;;;;;;5.47;2.60;;;;;;;18.84;nan;101457.66;4817055;29;20455;-86
2022/05/22 23:11:54;;;;;;;6.57;2.80;;;;;;;18.85;nan;101462.13;4817051;29;20861;-86
2022/05/22 23:14:26;;;;;;;7.30;3.03;;;;;;;18.88;nan;101461.63;4816880;29;20459;-86
2022/05/22 23:16:54;;;;;;;10.23;2.90;;;;;;;18.89;nan;101453.09;4847326;29;20967;-86
2022/05/22 23:19:22;;;;;;;10.00;3.30;;;;;;;18.81;nan;101455.34;4845646;29;20815;-86
2022/05/22 23:21:50;;;;;;;7.23;2.10;;;;;;;18.86;nan;101461.84;4846043;29;20977;-86
2022/05/22 23:24:17;;;;;;;8.47;2.20;;;;;;;18.88;nan;101464.41;4845978;29;20526;-86
2022/05/22 23:26:45;;;;;;;7.37;2.47;;;;;;;18.82;nan;101465.34;4816627;29;20452;-86
2022/05/22 23:29:14;;;;;;;4.07;2.30;;;;;;;18.77;nan;101470.72;4831596;29;20466;-86
2022/05/22 23:31:42;;;;;;;7.50;2.40;;;;;;;18.77;nan;101465.19;4862930;29;20447;-86
2022/05/22 23:34:10;;;;;;;7.90;2.73;;;;;;;18.79;nan;101463.88;4816070;29;20539;-86
2022/05/22 23:36:42;;;;;;;6.73;2.33;;;;;;;18.87;nan;101459.94;4830956;29;20535;-86
2022/05/22 23:39:16;;;;;;;4.77;2.53;;;;;;;18.85;nan;101445.50;4832107;29;20791;-86
2022/05/22 23:42:07;;;;;;;5.87;2.30;;;;;;;18.84;nan;101452.97;4817917;29;20821;-85
2022/05/22 23:44:36;;;;;;;9.87;2.60;;;;;;;18.83;nan;101447.66;4859681;29;20463;-85
2022/05/22 23:47:04;;;;;;;9.10;2.73;;;;;;;18.80;nan;101459.19;4830842;29;20864;-86
2022/05/22 23:49:33;;;;;;;6.00;2.37;;;;;;;18.77;nan;101449.41;4846021;29;20443;-85
2022/05/22 23:52:07;;;;;;;8.83;1.80;;;;;;;18.77;nan;101448.56;4846357;29;20451;-86
2022/05/22 23:54:45;;;;;;;7.27;2.20;;;;;;;18.82;nan;101437.66;4830441;29;20459;-86
2022/05/22 23:57:12;;;;;;;12.67;2.60;;;;;;;18.80;nan;101445.34;4830939;29;20574;-86
2022/05/22 23:59:41;;;;;;;7.20;2.53;;;;;;;18.80;nan;101446.19;4829165;29;21058;-86
